createdAt,value
2018-09-04T00:00:27.762Z,17.80
2018-09-04T00:02:56.316Z,17.80
2018-09-04T00:05:24.830Z,17.90
2018-09-04T00:07:53.348Z,17.80
2018-09-04T00:10:22.092Z,17.80
2018-09-04T00:12:50.619Z,17.80
2018-09-04T00:15:19.254Z,17.80
2018-09-04T00:17:47.830Z,17.80
2018-09-04T00:20:16.438Z,17.80
2018-09-04T00:22:44.987Z,17.80
2018-09-04T00:25:13.577Z,17.80
2018-09-04T00:27:42.115Z,17.80
2018-09-04T00:30:10.702Z,17.80
2018-09-04T00:32:39.378Z,17.80
2018-09-04T00:35:07.887Z,17.80
2018-09-04T00:37:36.356Z,17.80
2018-09-04T00:40:05.719Z,17.80
2018-09-04T00:42:34.490Z,17.70
2018-09-04T00:45:03.018Z,17.70
2018-09-04T00:47:31.652Z,17.70
2018-09-04T00:50:00.195Z,17.80
2018-09-04T00:52:28.814Z,17.80
2018-09-04T00:54:57.263Z,17.70
2018-09-04T00:57:25.974Z,17.70
2018-09-04T00:59:54.479Z,17.70
2018-09-04T01:02:23.180Z,17.70
2018-09-04T01:04:51.665Z,17.80
2018-09-04T01:07:20.300Z,17.80
2018-09-04T01:09:48.869Z,17.80
2018-09-04T01:12:17.351Z,17.80
2018-09-04T01:14:45.982Z,17.80
2018-09-04T01:17:14.446Z,17.70
2018-09-04T01:19:42.946Z,17.70
2018-09-04T01:22:11.471Z,17.70
2018-09-04T01:24:39.923Z,17.80
2018-09-04T01:27:08.406Z,17.80
2018-09-04T01:29:37.019Z,17.80
2018-09-04T01:32:06.238Z,17.80
2018-09-04T01:34:34.746Z,17.80
2018-09-04T01:37:03.483Z,17.80
2018-09-04T01:39:31.982Z,17.80
2018-09-04T01:42:00.545Z,17.80
2018-09-04T01:44:29.042Z,17.80
2018-09-04T01:46:57.506Z,17.80
2018-09-04T01:49:26.242Z,17.80
2018-09-04T01:51:54.726Z,17.80
2018-09-04T01:54:23.200Z,17.80
2018-09-04T01:56:51.719Z,17.80
2018-09-04T01:59:20.219Z,17.80
2018-09-04T02:01:48.746Z,17.80
2018-09-04T02:04:17.279Z,17.80
2018-09-04T02:06:45.752Z,17.80
2018-09-04T02:09:14.515Z,17.80
2018-09-04T02:11:43.058Z,17.70
2018-09-04T02:14:11.598Z,17.70
2018-09-04T02:16:40.131Z,17.70
2018-09-04T02:19:08.786Z,17.60
2018-09-04T02:21:37.378Z,17.60
2018-09-04T02:24:05.975Z,17.60
2018-09-04T02:26:34.468Z,17.60
2018-09-04T02:29:03.090Z,17.50
2018-09-04T02:31:31.684Z,17.50
2018-09-04T02:34:00.186Z,17.50
2018-09-04T02:36:28.803Z,17.50
2018-09-04T02:38:57.562Z,17.40
2018-09-04T02:41:26.087Z,17.40
2018-09-04T02:43:55.072Z,17.30
2018-09-04T02:46:23.742Z,17.30
2018-09-04T02:48:52.218Z,17.20
2018-09-04T02:51:20.759Z,17.20
2018-09-04T02:53:49.434Z,17.20
2018-09-04T02:56:17.970Z,17.20
2018-09-04T02:58:46.652Z,17.20
2018-09-04T03:01:15.111Z,17.20
2018-09-04T03:03:43.685Z,17.20
2018-09-04T03:06:12.494Z,17.20
2018-09-04T03:08:41.157Z,17.10
2018-09-04T03:11:09.919Z,17.10
2018-09-04T03:13:38.425Z,17.10
2018-09-04T03:16:07.482Z,17.10
2018-09-04T03:18:36.031Z,17.00
2018-09-04T03:21:04.532Z,17.00
2018-09-04T03:23:33.143Z,17.00
2018-09-04T03:26:01.668Z,17.00
2018-09-04T03:28:30.206Z,17.10
2018-09-04T03:30:58.757Z,17.10
2018-09-04T03:33:27.430Z,17.00
2018-09-04T03:35:56.205Z,17.00
2018-09-04T03:38:24.655Z,16.90
2018-09-04T03:40:53.287Z,16.90
2018-09-04T03:43:21.777Z,16.90
2018-09-04T03:45:50.484Z,16.90
2018-09-04T03:48:19.185Z,16.90
2018-09-04T03:50:47.944Z,16.80
2018-09-04T03:53:16.515Z,16.80
2018-09-04T03:55:45.094Z,16.80
2018-09-04T03:58:13.778Z,16.80
2018-09-04T04:00:42.346Z,16.80
2018-09-04T04:03:10.825Z,16.70
2018-09-04T04:05:39.500Z,16.70
2018-09-04T04:08:08.259Z,16.70
2018-09-04T04:10:36.727Z,16.60
2018-09-04T04:13:05.625Z,16.60
2018-09-04T04:15:34.610Z,16.60
2018-09-04T04:18:03.230Z,16.50
2018-09-04T04:20:31.762Z,16.60
2018-09-04T04:23:00.324Z,16.50
2018-09-04T04:25:29.046Z,16.50
2018-09-04T04:27:57.541Z,16.50
2018-09-04T04:30:26.060Z,16.50
2018-09-04T04:32:54.956Z,16.50
2018-09-04T04:35:23.562Z,16.50
2018-09-04T04:37:52.054Z,16.40
2018-09-04T04:40:20.631Z,16.40
2018-09-04T04:42:49.306Z,16.40
2018-09-04T04:45:17.909Z,16.40
2018-09-04T04:47:47.446Z,16.40
2018-09-04T04:50:16.353Z,16.40
2018-09-04T04:52:44.991Z,16.40
2018-09-04T04:55:13.708Z,16.40
2018-09-04T04:57:42.185Z,16.40
2018-09-04T05:00:10.766Z,16.40
2018-09-04T05:02:39.690Z,16.40
2018-09-04T05:05:08.474Z,16.30
2018-09-04T05:07:37.159Z,16.30
2018-09-04T05:10:06.235Z,16.30
2018-09-04T05:12:34.791Z,16.30
2018-09-04T05:15:03.275Z,16.30
2018-09-04T05:17:31.931Z,16.30
2018-09-04T05:20:00.591Z,16.30
2018-09-04T05:22:29.071Z,16.30
2018-09-04T05:24:57.612Z,16.30
2018-09-04T05:27:26.088Z,16.40
2018-09-04T05:29:54.791Z,16.40
2018-09-04T05:32:36.155Z,16.40
2018-09-04T05:35:04.831Z,16.50
2018-09-04T05:37:33.372Z,16.50
2018-09-04T05:40:02.007Z,16.60
2018-09-04T05:42:34.037Z,16.60
2018-09-04T05:45:02.744Z,16.60
2018-09-04T05:47:33.556Z,16.70
2018-09-04T05:50:02.778Z,16.70
2018-09-04T05:52:31.276Z,16.80
2018-09-04T05:55:00.009Z,16.80
2018-09-04T05:57:28.527Z,16.80
2018-09-04T05:59:57.127Z,16.80
2018-09-04T06:02:25.879Z,16.80
2018-09-04T06:04:54.488Z,16.90
2018-09-04T06:07:22.992Z,16.90
2018-09-04T06:09:51.526Z,17.00
2018-09-04T06:12:20.038Z,17.00
2018-09-04T06:14:48.786Z,17.00
2018-09-04T06:17:17.579Z,17.10
2018-09-04T06:19:46.374Z,17.10
2018-09-04T06:22:14.927Z,17.20
2018-09-04T06:24:43.394Z,17.20
2018-09-04T06:27:11.979Z,17.20
2018-09-04T06:29:40.763Z,17.20
2018-09-04T06:32:09.214Z,17.30
2018-09-04T06:34:37.794Z,17.30
2018-09-04T06:37:06.321Z,17.30
2018-09-04T06:39:34.897Z,17.30
2018-09-04T06:42:03.538Z,17.30
2018-09-04T06:44:32.126Z,17.40
2018-09-04T06:47:01.114Z,17.40
2018-09-04T06:49:29.602Z,17.40
2018-09-04T06:51:58.123Z,17.40
2018-09-04T06:54:27.005Z,17.40
2018-09-04T06:56:55.475Z,17.40
2018-09-04T06:59:23.999Z,17.40
2018-09-04T07:01:52.542Z,17.40
2018-09-04T07:04:21.063Z,17.40
2018-09-04T07:06:49.660Z,17.50
2018-09-04T07:09:18.295Z,17.40
2018-09-04T07:11:46.810Z,17.50
2018-09-04T07:14:15.301Z,17.50
2018-09-04T07:16:43.804Z,17.50
2018-09-04T07:19:17.852Z,17.50
2018-09-04T07:21:46.848Z,17.50
2018-09-04T07:24:16.193Z,17.50
2018-09-04T07:26:45.755Z,17.60
2018-09-04T07:29:14.632Z,17.60
2018-09-04T07:31:43.410Z,17.60
2018-09-04T07:34:11.891Z,17.60
2018-09-04T07:36:40.683Z,17.60
2018-09-04T07:39:10.904Z,17.70
2018-09-04T07:41:39.617Z,17.70
2018-09-04T07:44:08.207Z,17.70
2018-09-04T07:46:37.042Z,17.70
2018-09-04T07:49:05.858Z,17.80
2018-09-04T07:51:34.407Z,17.80
2018-09-04T07:54:02.972Z,17.80
2018-09-04T07:56:31.651Z,17.80
2018-09-04T07:59:00.576Z,17.80
2018-09-04T08:01:29.119Z,17.80
2018-09-04T08:03:57.731Z,17.80
2018-09-04T08:06:26.227Z,17.90
2018-09-04T08:08:54.694Z,17.90
2018-09-04T08:11:23.267Z,17.90
2018-09-04T08:13:51.779Z,18.00
2018-09-04T08:16:20.483Z,18.00
2018-09-04T08:18:49.017Z,18.00
2018-09-04T08:21:17.478Z,18.10
2018-09-04T08:23:45.928Z,18.10
2018-09-04T08:26:14.557Z,18.20
2018-09-04T08:28:43.008Z,18.20
2018-09-04T08:31:11.546Z,18.30
2018-09-04T08:33:40.087Z,18.30
2018-09-04T08:36:08.796Z,18.30
2018-09-04T08:38:42.638Z,18.30
2018-09-04T08:41:11.135Z,18.30
2018-09-04T08:43:39.695Z,18.40
2018-09-04T08:46:08.446Z,18.40
2018-09-04T08:48:36.950Z,18.40
2018-09-04T08:51:05.808Z,18.40
2018-09-04T08:53:34.490Z,18.50
2018-09-04T08:56:03.283Z,18.50
2018-09-04T08:58:31.788Z,18.50
2018-09-04T09:01:00.265Z,18.60
2018-09-04T09:03:29.216Z,18.60
2018-09-04T09:05:57.712Z,18.60
2018-09-04T09:08:26.340Z,18.60
2018-09-04T09:10:54.908Z,18.60
2018-09-04T09:13:23.427Z,18.70
2018-09-04T09:15:52.106Z,18.70
2018-09-04T09:18:20.595Z,18.70
2018-09-04T09:20:49.061Z,18.70
2018-09-04T09:23:17.630Z,18.70
2018-09-04T09:25:46.131Z,18.70
2018-09-04T09:28:14.631Z,18.70
2018-09-04T09:30:43.317Z,18.70
2018-09-04T09:33:11.920Z,18.80
2018-09-04T09:35:40.371Z,18.80
2018-09-04T09:38:08.814Z,18.80
2018-09-04T09:40:37.332Z,18.80
2018-09-04T09:43:06.179Z,18.90
2018-09-04T09:45:34.915Z,18.90
2018-09-04T09:48:03.593Z,19.00
2018-09-04T09:50:32.154Z,19.00
2018-09-04T09:53:00.843Z,19.10
2018-09-04T09:55:29.410Z,19.10
2018-09-04T09:57:58.003Z,19.20
2018-09-04T10:00:31.682Z,19.20
2018-09-04T10:03:09.666Z,19.20
2018-09-04T10:05:38.256Z,19.40
2018-09-04T10:08:06.901Z,19.50
2018-09-04T10:10:35.391Z,19.50
2018-09-04T10:13:03.991Z,19.50
2018-09-04T10:15:32.640Z,19.60
2018-09-04T10:18:01.135Z,19.60
2018-09-04T10:20:29.722Z,19.60
2018-09-04T10:22:58.415Z,19.70
2018-09-04T10:25:26.911Z,19.80
2018-09-04T10:27:55.437Z,19.80
2018-09-04T10:30:24.022Z,19.80
2018-09-04T10:32:53.696Z,19.90
2018-09-04T10:35:22.930Z,20.00
2018-09-04T10:37:52.002Z,20.00
2018-09-04T10:40:25.898Z,20.10
2018-09-04T10:42:54.600Z,20.20
2018-09-04T10:45:28.551Z,20.30
2018-09-04T10:47:57.003Z,20.30
2018-09-04T10:50:25.478Z,20.40
2018-09-04T10:52:54.145Z,20.50
2018-09-04T10:55:22.998Z,20.70
2018-09-04T10:57:51.670Z,20.70
2018-09-04T11:00:20.375Z,20.70
2018-09-04T11:02:48.943Z,20.80
2018-09-04T11:05:17.563Z,20.90
2018-09-04T11:07:46.044Z,20.90
2018-09-04T11:10:14.599Z,21.10
2018-09-04T11:12:43.343Z,21.20
2018-09-04T11:15:11.888Z,21.10
2018-09-04T11:17:40.403Z,21.20
2018-09-04T11:20:09.270Z,21.20
2018-09-04T11:22:37.817Z,21.30
2018-09-04T11:25:06.949Z,21.50
2018-09-04T11:27:35.466Z,21.50
2018-09-04T11:30:04.423Z,21.50
2018-09-04T11:32:32.943Z,21.50
2018-09-04T11:35:01.465Z,21.50
2018-09-04T11:37:29.955Z,21.70
2018-09-04T11:39:58.551Z,21.70
2018-09-04T11:42:27.103Z,21.70
2018-09-04T11:44:55.827Z,21.70
2018-09-04T11:47:24.312Z,21.80
2018-09-04T11:49:53.069Z,21.90
2018-09-04T11:52:21.680Z,21.90
2018-09-04T11:54:50.212Z,21.90
2018-09-04T11:57:18.779Z,22.00
2018-09-04T11:59:47.507Z,22.00
2018-09-04T12:02:21.795Z,22.00
2018-09-04T12:04:50.495Z,22.00
2018-09-04T12:07:19.195Z,22.10
2018-09-04T12:09:47.679Z,22.20
2018-09-04T12:12:21.685Z,22.10
2018-09-04T12:14:50.115Z,22.20
2018-09-04T12:17:18.678Z,22.10
2018-09-04T12:20:57.274Z,22.30
2018-09-04T12:23:25.823Z,22.30
2018-09-04T12:25:56.791Z,22.30
2018-09-04T12:28:25.375Z,22.10
2018-09-04T12:30:55.183Z,22.10
2018-09-04T12:33:23.779Z,22.20
2018-09-04T12:35:52.303Z,22.20
2018-09-04T12:38:22.499Z,22.20
2018-09-04T12:40:51.028Z,22.30
2018-09-04T12:43:19.642Z,22.20
2018-09-04T12:45:53.059Z,22.20
2018-09-04T12:48:23.678Z,22.30
2018-09-04T12:50:53.494Z,22.20
2018-09-04T12:53:22.760Z,22.10
2018-09-04T12:55:51.590Z,22.30
2018-09-04T12:58:20.558Z,22.30
2018-09-04T13:00:51.111Z,22.00
2018-09-04T13:03:21.215Z,21.90
2018-09-04T13:05:49.738Z,21.80
2018-09-04T13:08:19.302Z,21.90
2018-09-04T13:10:48.064Z,22.00
2018-09-04T13:13:16.688Z,22.00
2018-09-04T13:15:47.315Z,22.10
2018-09-04T13:18:15.880Z,22.20
2018-09-04T13:20:44.660Z,22.30
2018-09-04T13:23:13.356Z,22.20
2018-09-04T13:25:42.225Z,22.30
2018-09-04T13:28:11.099Z,22.30
2018-09-04T13:30:40.187Z,22.30
2018-09-04T13:33:09.002Z,22.30
2018-09-04T13:35:38.332Z,22.10
2018-09-04T13:38:07.283Z,22.20
2018-09-04T13:40:35.983Z,22.30
2018-09-04T13:43:04.746Z,22.10
2018-09-04T13:45:33.291Z,22.00
2018-09-04T13:48:02.193Z,22.10
2018-09-04T13:50:30.938Z,22.20
2018-09-04T13:52:59.553Z,22.40
2018-09-04T13:55:28.220Z,22.50
2018-09-04T13:57:56.881Z,22.30
2018-09-04T14:00:26.161Z,22.00
2018-09-04T14:02:54.724Z,22.30
2018-09-04T14:05:23.291Z,22.20
2018-09-04T14:07:52.044Z,22.20
2018-09-04T14:10:20.594Z,22.30
2018-09-04T14:12:49.202Z,22.20
2018-09-04T14:15:17.767Z,22.40
2018-09-04T14:17:46.247Z,22.70
2018-09-04T14:20:14.835Z,22.70
2018-09-04T14:22:43.528Z,22.60
2018-09-04T14:25:12.100Z,22.60
2018-09-04T14:27:40.712Z,22.70
2018-09-04T14:30:16.560Z,22.70
2018-09-04T14:32:37.939Z,22.80
2018-09-04T14:35:07.614Z,22.80
2018-09-04T14:37:36.142Z,22.90
2018-09-04T14:40:04.737Z,22.80
2018-09-04T14:42:33.290Z,22.80
2018-09-04T14:45:02.048Z,22.80
2018-09-04T14:47:30.575Z,22.60
2018-09-04T14:49:59.192Z,22.50
2018-09-04T14:52:28.132Z,22.60
2018-09-04T14:54:56.704Z,22.80
2018-09-04T14:57:25.328Z,22.70
2018-09-04T14:59:53.923Z,22.80
2018-09-04T15:02:22.544Z,22.90
2018-09-04T15:04:51.159Z,23.00
2018-09-04T15:07:19.850Z,22.70
2018-09-04T15:09:48.495Z,22.80
2018-09-04T15:12:17.150Z,22.80
2018-09-04T15:14:46.031Z,22.60
2018-09-04T15:17:14.706Z,22.70
2018-09-04T15:19:43.374Z,22.70
2018-09-04T15:22:12.250Z,22.80
2018-09-04T15:24:40.804Z,22.80
2018-09-04T15:27:09.448Z,22.70
2018-09-04T15:29:38.020Z,22.70
2018-09-04T15:32:06.977Z,22.60
2018-09-04T15:34:35.583Z,22.60
2018-09-04T15:37:04.146Z,22.70
2018-09-04T15:39:32.616Z,22.80
2018-09-04T15:42:01.372Z,22.70
2018-09-04T15:44:29.989Z,22.70
2018-09-04T15:46:58.523Z,22.60
2018-09-04T15:49:32.602Z,22.60
2018-09-04T15:52:01.458Z,22.50
2018-09-04T15:54:29.995Z,22.40
2018-09-04T15:56:58.915Z,22.40
2018-09-04T15:59:27.650Z,22.30
2018-09-04T16:01:56.271Z,22.30
2018-09-04T16:04:24.914Z,22.30
2018-09-04T16:06:53.710Z,22.00
2018-09-04T16:09:22.371Z,21.90
2018-09-04T16:11:51.234Z,21.80
2018-09-04T16:14:19.809Z,21.80
2018-09-04T16:16:48.444Z,21.80
2018-09-04T16:19:17.147Z,21.80
2018-09-04T16:21:45.891Z,21.80
2018-09-04T16:24:14.660Z,21.90
2018-09-04T16:26:43.202Z,21.90
2018-09-04T16:29:11.815Z,21.90
2018-09-04T16:31:40.628Z,22.00
2018-09-04T16:34:09.225Z,22.00
2018-09-04T16:36:37.863Z,22.00
2018-09-04T16:39:06.859Z,22.00
2018-09-04T16:41:35.449Z,22.00
2018-09-04T16:44:04.465Z,22.00
2018-09-04T16:46:33.113Z,22.00
2018-09-04T16:49:01.666Z,22.10
2018-09-04T16:51:30.253Z,22.00
2018-09-04T16:53:58.899Z,22.00
2018-09-04T16:56:27.486Z,22.00
2018-09-04T16:58:56.152Z,21.90
2018-09-04T17:01:24.983Z,21.90
2018-09-04T17:03:53.558Z,21.80
2018-09-04T17:06:22.362Z,21.70
2018-09-04T17:08:50.893Z,21.70
2018-09-04T17:11:19.525Z,21.70
2018-09-04T17:13:48.137Z,21.60
2018-09-04T17:16:16.850Z,21.50
2018-09-04T17:18:45.429Z,21.50
2018-09-04T17:21:14.022Z,21.40
2018-09-04T17:23:42.628Z,21.40
2018-09-04T17:26:11.264Z,21.30
2018-09-04T17:28:39.784Z,21.30
2018-09-04T17:31:08.512Z,21.20
2018-09-04T17:33:37.034Z,21.20
2018-09-04T17:36:05.620Z,21.10
2018-09-04T17:38:34.279Z,21.10
2018-09-04T17:41:02.910Z,21.10
2018-09-04T17:43:31.767Z,21.00
2018-09-04T17:46:00.350Z,21.00
2018-09-04T17:48:28.888Z,20.90
2018-09-04T17:50:57.541Z,20.90
2018-09-04T17:53:26.112Z,20.90
2018-09-04T17:55:55.093Z,20.80
2018-09-04T17:58:24.124Z,20.70
2018-09-04T18:00:53.021Z,20.70
2018-09-04T18:03:21.914Z,20.70
2018-09-04T18:05:50.956Z,20.60
2018-09-04T18:08:19.748Z,20.60
2018-09-04T18:10:48.567Z,20.60
2018-09-04T18:13:17.384Z,20.50
2018-09-04T18:15:45.979Z,20.50
2018-09-04T18:18:14.921Z,20.50
2018-09-04T18:20:43.670Z,20.40
2018-09-04T18:23:12.404Z,20.40
2018-09-04T18:25:41.186Z,20.40
2018-09-04T18:28:09.826Z,20.30
2018-09-04T18:30:38.967Z,20.20
2018-09-04T18:33:07.804Z,20.20
2018-09-04T18:35:36.333Z,20.20
2018-09-04T18:38:04.915Z,20.10
2018-09-04T18:40:33.713Z,20.10
2018-09-04T18:43:02.436Z,20.10
2018-09-04T18:45:49.118Z,20.10
2018-09-04T18:48:18.063Z,20.10
2018-09-04T18:50:46.723Z,20.10
2018-09-04T18:53:41.795Z,20.00
2018-09-04T18:56:10.648Z,20.00
2018-09-04T18:58:39.179Z,20.00
2018-09-04T19:01:07.885Z,19.90
2018-09-04T19:03:36.713Z,19.90
2018-09-04T19:06:05.385Z,19.90
2018-09-04T19:08:34.075Z,19.80
2018-09-04T19:11:02.805Z,19.70
2018-09-04T19:13:31.740Z,19.70
2018-09-04T19:16:00.314Z,19.70
2018-09-04T19:18:28.831Z,19.70
2018-09-04T19:20:57.671Z,19.70
2018-09-04T19:23:26.289Z,19.60
2018-09-04T19:25:54.966Z,19.50
2018-09-04T19:28:23.540Z,19.50
2018-09-04T19:30:52.189Z,19.50
2018-09-04T19:33:20.843Z,19.40
2018-09-04T19:35:49.485Z,19.40
2018-09-04T19:38:18.329Z,19.30
2018-09-04T19:40:46.899Z,19.20
2018-09-04T19:43:15.801Z,19.20
2018-09-04T19:45:44.400Z,19.10
2018-09-04T19:48:12.973Z,19.10
2018-09-04T19:50:41.689Z,19.00
2018-09-04T19:53:10.403Z,18.90
2018-09-04T19:55:39.200Z,18.80
2018-09-04T19:58:08.012Z,18.80
2018-09-04T20:00:36.586Z,18.80
2018-09-04T20:03:05.196Z,18.80
2018-09-04T20:05:33.790Z,18.80
2018-09-04T20:08:02.321Z,18.80
2018-09-04T20:10:30.995Z,18.80
2018-09-04T20:12:59.546Z,18.80
2018-09-04T20:15:28.124Z,18.80
2018-09-04T20:17:56.630Z,18.80
2018-09-04T20:20:25.179Z,18.80
2018-09-04T20:22:53.998Z,18.80
2018-09-04T20:25:22.724Z,18.80
2018-09-04T20:27:51.423Z,18.80
2018-09-04T20:30:20.157Z,18.80
2018-09-04T20:32:48.934Z,18.80
2018-09-04T20:35:17.485Z,18.80
2018-09-04T20:37:46.132Z,18.80
2018-09-04T20:40:14.751Z,18.80
2018-09-04T20:42:43.627Z,18.80
2018-09-04T20:45:12.219Z,18.80
2018-09-04T20:47:40.762Z,18.80
2018-09-04T20:50:09.291Z,18.80
2018-09-04T20:52:37.956Z,18.70
2018-09-04T20:55:06.639Z,18.70
2018-09-04T20:57:35.479Z,18.70
2018-09-04T21:00:31.080Z,18.60
2018-09-04T21:03:10.923Z,18.60
2018-09-04T21:05:51.710Z,18.50
2018-09-04T21:08:37.574Z,18.50
2018-09-04T21:11:06.495Z,18.40
2018-09-04T21:13:35.299Z,18.40
2018-09-04T21:16:03.984Z,18.40
2018-09-04T21:18:32.482Z,18.30
2018-09-04T21:21:01.090Z,18.30
2018-09-04T21:23:29.648Z,18.30
2018-09-04T21:25:58.303Z,18.30
2018-09-04T21:28:26.906Z,18.20
2018-09-04T21:30:55.490Z,18.20
2018-09-04T21:33:24.018Z,18.10
2018-09-04T21:35:52.535Z,18.00
2018-09-04T21:38:21.254Z,18.00
2018-09-04T21:40:49.730Z,18.00
2018-09-04T21:43:18.480Z,18.00
2018-09-04T21:45:46.991Z,18.00
2018-09-04T21:48:15.625Z,18.10
2018-09-04T21:50:44.167Z,18.10
2018-09-04T21:53:12.838Z,18.10
2018-09-04T21:55:41.336Z,18.00
2018-09-04T21:58:09.912Z,18.00
2018-09-04T22:00:38.491Z,17.90
2018-09-04T22:03:09.287Z,17.90
2018-09-04T22:05:38.877Z,17.90
2018-09-04T22:08:07.512Z,17.80
2018-09-04T22:10:36.146Z,17.80
2018-09-04T22:13:05.318Z,17.80
2018-09-04T22:15:34.055Z,17.70
2018-09-04T22:18:02.554Z,17.70
2018-09-04T22:20:31.188Z,17.70
2018-09-04T22:22:59.763Z,17.60
2018-09-04T22:25:28.554Z,17.60
2018-09-04T22:27:57.174Z,17.60
2018-09-04T22:30:26.429Z,17.60
2018-09-04T22:32:55.561Z,17.60
2018-09-04T22:35:24.049Z,17.50
2018-09-04T22:37:52.571Z,17.50
2018-09-04T22:40:21.143Z,17.50
2018-09-04T22:42:49.850Z,17.50
2018-09-04T22:45:18.420Z,17.50
2018-09-04T22:47:46.998Z,17.50
2018-09-04T22:50:20.903Z,17.40
2018-09-04T22:52:49.478Z,17.30
2018-09-04T22:55:18.043Z,17.30
2018-09-04T22:57:46.550Z,17.30
2018-09-04T23:00:16.091Z,17.30
2018-09-04T23:02:45.003Z,17.30
2018-09-04T23:05:14.047Z,17.20
2018-09-04T23:07:42.515Z,17.20
2018-09-04T23:10:11.044Z,17.20
2018-09-04T23:12:39.660Z,17.20
2018-09-04T23:15:08.351Z,17.10
2018-09-04T23:17:36.893Z,17.10
2018-09-04T23:20:05.850Z,17.10
2018-09-04T23:22:34.356Z,17.10
2018-09-04T23:25:02.990Z,17.10
2018-09-04T23:27:31.532Z,17.00
2018-09-04T23:30:00.203Z,17.00
2018-09-04T23:32:28.683Z,17.00
2018-09-04T23:34:57.250Z,17.00
2018-09-04T23:37:26.102Z,17.00
2018-09-04T23:39:54.586Z,17.00
2018-09-04T23:42:23.115Z,16.90
2018-09-04T23:44:51.670Z,16.90
2018-09-04T23:47:20.360Z,16.90
2018-09-04T23:49:49.281Z,16.90
2018-09-04T23:52:17.783Z,16.80
2018-09-04T23:54:46.406Z,16.80
2018-09-04T23:57:15.078Z,16.80
2018-09-04T23:59:43.629Z,16.80
